Time;durP1;ratioP1;P1;durP2;ratioP2;P2;SDS_P1;SDS_P2;PMS_P1;PMS_P2;Temp;Humidity;BMP_temperature;BMP_pressure;BME280_temperature;BME280_humidity;BME280_pressure;Samples;Min_cycle;Max_cycle;Signal;HPM_P1;HPM_P2
2022/01/08 00:00:15;;;;;;;8.73;1.65;;;5.80;40.90;;;;;;5136862;27;20493;-74
2022/01/08 00:02:42;;;;;;;6.53;1.52;;;5.90;41.10;;;;;;5136552;27;20042;-74
2022/01/08 00:05:09;;;;;;;6.93;1.80;;;5.90;37.00;;;;;;5136343;27;20035;-74
2022/01/08 00:07:35;;;;;;;8.98;1.70;;;5.90;39.50;;;;;;5136672;27;20117;-74
2022/01/08 00:10:02;;;;;;;3.40;1.00;;;5.90;49.80;;;;;;5136788;27;20039;-74
2022/01/08 00:12:28;;;;;;;7.30;1.48;;;5.90;34.00;;;;;;5135860;27;20077;-74
2022/01/08 00:14:54;;;;;;;2.55;1.00;;;5.90;34.60;;;;;;5135455;27;20038;-74
2022/01/08 00:17:22;;;;;;;4.78;0.80;;;5.90;13.00;;;;;;5136156;27;20087;-74
2022/01/08 00:19:51;;;;;;;3.03;1.10;;;5.90;15.10;;;;;;5135897;27;20558;-74
2022/01/08 00:22:17;;;;;;;4.53;0.70;;;5.90;14.10;;;;;;5136090;27;20034;-74
2022/01/08 00:24:43;;;;;;;3.08;0.63;;;5.90;35.70;;;;;;5136094;27;20034;-74
2022/01/08 00:27:09;;;;;;;2.55;1.08;;;5.90;25.20;;;;;;5135610;27;20549;-74
2022/01/08 00:29:35;;;;;;;3.33;0.75;;;5.90;25.60;;;;;;5135411;27;20054;-74
2022/01/08 00:32:01;;;;;;;3.30;0.65;;;6.00;13.00;;;;;;5135746;27;20041;-74
2022/01/08 00:34:26;;;;;;;4.18;0.50;;;6.00;19.40;;;;;;5135525;27;20039;-74
2022/01/08 00:36:52;;;;;;;2.08;0.57;;;6.00;19.80;;;;;;5135824;27;20039;-74
2022/01/08 00:39:18;;;;;;;0.70;0.35;;;6.00;28.70;;;;;;5135822;27;20035;-74
2022/01/08 00:41:44;;;;;;;0.93;0.70;;;5.80;61.90;;;;;;5136083;27;20369;-74
2022/01/08 00:44:10;;;;;;;2.38;0.60;;;5.80;69.10;;;;;;5136066;27;20092;-74
2022/01/08 00:46:36;;;;;;;3.75;0.68;;;5.60;99.90;;;;;;5135617;27;20027;-74
2022/01/08 00:49:03;;;;;;;0.88;0.55;;;5.60;91.70;;;;;;5117708;27;20023;-74
2022/01/08 00:51:28;;;;;;;1.50;0.40;;;5.60;89.40;;;;;;5135657;27;20038;-74
2022/01/08 00:53:54;;;;;;;2.92;0.80;;;5.70;48.80;;;;;;5135645;27;20035;-74
2022/01/08 00:56:20;;;;;;;1.55;0.40;;;5.70;67.60;;;;;;5135131;27;20034;-74
2022/01/08 00:58:46;;;;;;;0.70;0.55;;;5.70;47.80;;;;;;5135962;28;20392;-74
2022/01/08 01:01:12;;;;;;;0.70;0.40;;;5.80;65.60;;;;;;5135501;27;20419;-74
2022/01/08 01:03:38;;;;;;;0.68;0.28;;;5.80;38.10;;;;;;5135440;28;20027;-74
2022/01/08 01:06:06;;;;;;;0.75;0.50;;;5.90;23.20;;;;;;5135498;27;20593;-74
2022/01/08 01:08:33;;;;;;;0.73;0.30;;;5.90;22.70;;;;;;5135543;27;20035;-74
2022/01/08 01:10:58;;;;;;;1.70;0.35;;;5.80;50.00;;;;;;5135401;28;20138;-74
2022/01/08 01:13:24;;;;;;;0.70;0.40;;;5.80;59.60;;;;;;5135802;28;20569;-74
2022/01/08 01:15:50;;;;;;;0.80;0.15;;;5.60;99.90;;;;;;5135654;28;20035;-74
2022/01/08 01:18:17;;;;;;;0.28;0.10;;;5.80;38.50;;;;;;5135292;28;20043;-74
2022/01/08 01:20:43;;;;;;;0.70;0.25;;;5.80;49.40;;;;;;5136017;28;20070;-74
2022/01/08 01:23:13;;;;;;;1.70;0.20;;;5.80;41.20;;;;;;5135401;28;20508;-74
2022/01/08 01:25:48;;;;;;;2.10;0.70;;;5.90;50.40;;;;;;5136421;28;20062;-74
2022/01/08 01:41:42;;;;;;;0.73;0.20;;;5.80;97.10;;;;;;5139196;27;20581;-74
2022/01/08 01:47:02;;;;;;;1.77;0.40;;;5.80;99.90;;;;;;5139156;27;20027;-74
2022/01/08 01:49:33;;;;;;;1.75;0.47;;;5.80;99.90;;;;;;5138575;27;20031;-74
2022/01/08 01:52:00;;;;;;;2.05;0.30;;;5.70;99.90;;;;;;5139311;27;20056;-74
2022/01/08 01:54:30;;;;;;;0.73;0.20;;;5.70;99.90;;;;;;5139197;27;20031;-74
2022/01/08 01:56:57;;;;;;;2.35;0.40;;;5.60;99.90;;;;;;5139224;27;20043;-74
2022/01/08 01:59:29;;;;;;;2.63;0.30;;;5.60;99.90;;;;;;5139498;27;20031;-74
2022/01/08 02:01:55;;;;;;;1.35;0.40;;;5.60;99.90;;;;;;5138819;27;20108;-74
2022/01/08 02:04:21;;;;;;;1.00;0.40;;;5.50;99.90;;;;;;5138878;27;20035;-74
2022/01/08 02:06:48;;;;;;;1.45;0.43;;;5.60;99.90;;;;;;5138804;27;20031;-75
2022/01/08 02:09:13;;;;;;;0.77;0.38;;;5.50;99.90;;;;;;5139554;27;20042;-74
2022/01/08 02:12:17;;;;;;;3.45;0.30;;;5.50;99.90;;;;;;5138367;27;20043;-75
2022/01/08 02:14:45;;;;;;;0.85;0.30;;;5.60;99.90;;;;;;5035508;28;20046;-74
2022/01/08 02:17:11;;;;;;;1.42;0.30;;;5.60;99.90;;;;;;5120087;27;20485;-74
2022/01/08 02:19:38;;;;;;;0.45;0.40;;;5.60;99.90;;;;;;5138452;27;20043;-74
2022/01/08 02:22:06;;;;;;;0.70;0.30;;;5.60;99.90;;;;;;5138361;27;20023;-74
2022/01/08 02:24:32;;;;;;;2.33;0.40;;;5.60;99.90;;;;;;5138400;27;20043;-75
2022/01/08 02:26:58;;;;;;;1.60;0.55;;;5.70;99.90;;;;;;5138309;27;20067;-74
2022/01/08 02:29:26;;;;;;;0.95;0.50;;;5.60;99.90;;;;;;5138650;27;20062;-75
2022/01/08 02:32:14;;;;;;;2.58;0.50;;;5.60;99.90;;;;;;5138245;27;20069;-75
2022/01/08 02:34:41;;;;;;;2.67;0.60;;;5.60;99.90;;;;;;5138114;27;20081;-75
2022/01/08 02:37:08;;;;;;;0.63;0.20;;;5.60;99.90;;;;;;5137842;27;20494;-74
2022/01/08 02:39:42;;;;;;;0.93;0.30;;;5.60;99.90;;;;;;5138183;27;20041;-75
2022/01/08 02:42:12;;;;;;;0.65;0.57;;;5.60;99.90;;;;;;5137815;27;20119;-74
2022/01/08 02:44:39;;;;;;;2.53;0.40;;;5.60;99.90;;;;;;5137885;27;20031;-74
2022/01/08 02:47:05;;;;;;;0.70;0.47;;;5.50;1.00;;;;;;5137975;27;20035;-75
2022/01/08 02:49:35;;;;;;;0.43;0.20;;;5.60;1.00;;;;;;5137914;27;20035;-75
2022/01/08 02:52:02;;;;;;;1.67;0.20;;;5.50;99.90;;;;;;5137861;27;20039;-75
2022/01/08 02:54:27;;;;;;;0.43;0.10;;;5.50;99.90;;;;;;5138016;27;20034;-75
2022/01/08 02:56:53;;;;;;;0.10;0.10;;;5.50;1.00;;;;;;5137787;27;20347;-75
2022/01/08 02:59:19;;;;;;;0.57;0.13;;;5.50;1.00;;;;;;5138064;27;20046;-75
2022/01/08 03:01:46;;;;;;;1.45;0.38;;;5.50;1.00;;;;;;5137385;27;20027;-75
2022/01/08 03:04:13;;;;;;;0.55;0.20;;;5.50;1.00;;;;;;5137079;27;20164;-75
2022/01/08 03:06:39;;;;;;;1.80;0.43;;;5.60;99.90;;;;;;5137525;27;20034;-75
2022/01/08 03:09:06;;;;;;;0.73;0.38;;;5.60;9.00;;;;;;5137881;27;20035;-75
2022/01/08 03:11:32;;;;;;;0.57;0.40;;;5.60;1.00;;;;;;5137308;27;20046;-75
2022/01/08 03:13:58;;;;;;;0.85;0.30;;;5.70;1.00;;;;;;5137449;27;20035;-75
2022/01/08 03:16:24;;;;;;;1.88;0.50;;;5.70;1.00;;;;;;5137295;27;20049;-75
2022/01/08 03:18:51;;;;;;;2.33;0.70;;;5.80;1.00;;;;;;5137118;27;20039;-75
2022/01/08 03:21:20;;;;;;;2.58;0.50;;;5.90;99.90;;;;;;5137179;27;20045;-75
2022/01/08 03:23:58;;;;;;;4.03;0.50;;;5.90;99.90;;;;;;5137159;27;20023;-75
2022/01/08 03:26:26;;;;;;;1.42;0.35;;;5.90;1.00;;;;;;5137333;27;20095;-75
2022/01/08 03:28:53;;;;;;;1.92;0.47;;;5.90;1.00;;;;;;5137196;27;20035;-75
2022/01/08 03:31:21;;;;;;;2.65;0.30;;;5.90;1.00;;;;;;5137270;27;20035;-75
2022/01/08 03:33:48;;;;;;;1.02;0.20;;;5.90;1.00;;;;;;5137183;27;20027;-75
2022/01/08 03:36:15;;;;;;;1.55;0.40;;;5.90;1.00;;;;;;5136805;27;20035;-75
2022/01/08 03:38:41;;;;;;;1.55;0.52;;;5.90;1.00;;;;;;5136648;27;20035;-75
2022/01/08 03:41:07;;;;;;;2.97;0.35;;;5.90;1.00;;;;;;5137086;27;20050;-75
2022/01/08 03:43:33;;;;;;;1.35;0.20;;;6.00;1.00;;;;;;5136539;27;20063;-75
2022/01/08 03:46:01;;;;;;;0.60;0.13;;;5.90;1.00;;;;;;5136704;27;20038;-75
2022/01/08 03:48:45;;;;;;;1.00;0.30;;;5.90;1.00;;;;;;5136300;27;20062;-75
2022/01/08 03:51:12;;;;;;;1.85;0.22;;;5.90;1.00;;;;;;5136694;27;20095;-75
2022/01/08 03:53:38;;;;;;;1.90;0.45;;;6.00;99.90;;;;;;5136112;27;20550;-75
2022/01/08 03:56:04;;;;;;;3.92;0.50;;;6.00;99.90;;;;;;5136430;27;20027;-75
2022/01/08 03:58:30;;;;;;;4.80;0.30;;;6.00;99.90;;;;;;5136281;27;20042;-75
2022/01/08 04:00:56;;;;;;;4.07;1.15;;;6.10;99.90;;;;;;5136990;27;20076;-76
2022/01/08 04:03:22;;;;;;;3.40;0.40;;;6.10;99.90;;;;;;5136314;27;20114;-75
2022/01/08 04:05:50;;;;;;;2.17;0.35;;;6.10;1.00;;;;;;5136062;27;20058;-76
2022/01/08 04:08:19;;;;;;;2.92;0.57;;;6.10;99.90;;;;;;5136084;27;20110;-76
2022/01/08 04:10:46;;;;;;;1.73;0.30;;;6.10;9.40;;;;;;5136491;27;20123;-75
2022/01/08 04:13:15;;;;;;;0.38;0.30;;;6.10;1.00;;;;;;5136874;27;20081;-76
2022/01/08 04:15:44;;;;;;;1.63;0.20;;;6.00;99.90;;;;;;5136376;27;20035;-76
2022/01/08 04:18:11;;;;;;;0.40;0.15;;;6.00;99.90;;;;;;5136626;27;20035;-76
2022/01/08 04:23:37;;;;;;;1.17;0.20;;;6.00;1.00;;;;;;5068573;27;20062;-75
2022/01/08 04:26:03;;;;;;;1.38;0.10;;;6.00;1.00;;;;;;5136510;27;20046;-75
2022/01/08 04:28:29;;;;;;;0.15;0.15;;;6.00;99.90;;;;;;5136341;27;20083;-76
2022/01/08 04:30:55;;;;;;;1.27;0.47;;;6.10;99.90;;;;;;5136589;27;20046;-76
2022/01/08 04:33:21;;;;;;;0.30;0.30;;;6.00;96.90;;;;;;5135788;27;20016;-76
2022/01/08 04:35:46;;;;;;;1.02;0.20;;;6.10;21.40;;;;;;5135853;27;20042;-75
2022/01/08 04:38:12;;;;;;;0.70;0.20;;;6.10;1.00;;;;;;5135901;27;20027;-76
2022/01/08 04:40:40;;;;;;;0.43;0.20;;;6.20;1.00;;;;;;5136360;27;20469;-75
2022/01/08 04:43:06;;;;;;;0.28;0.17;;;6.20;1.00;;;;;;5136160;27;20035;-75
2022/01/08 04:45:32;;;;;;;0.65;0.20;;;6.20;1.00;;;;;;5136048;27;20043;-75
2022/01/08 04:48:00;;;;;;;0.90;0.30;;;6.20;99.90;;;;;;5136347;27;20365;-75
2022/01/08 04:50:27;;;;;;;0.45;0.30;;;6.30;99.90;;;;;;5136217;27;20058;-75
2022/01/08 04:52:54;;;;;;;0.80;0.20;;;6.20;99.90;;;;;;5135989;27;20070;-75
2022/01/08 04:55:21;;;;;;;0.80;0.40;;;6.30;99.90;;;;;;5135529;27;20370;-75
2022/01/08 04:57:47;;;;;;;0.38;0.38;;;6.20;99.90;;;;;;5135649;27;20045;-75
2022/01/08 05:00:15;;;;;;;1.40;0.30;;;6.20;99.90;;;;;;5136213;28;20031;-75
2022/01/08 05:02:41;;;;;;;0.70;0.40;;;6.10;99.90;;;;;;5135693;28;20031;-76
2022/01/08 05:05:07;;;;;;;1.65;0.40;;;6.10;99.90;;;;;;5136142;27;20520;-75
2022/01/08 05:07:33;;;;;;;0.80;0.40;;;6.00;99.90;;;;;;5139066;27;20520;-75
2022/01/08 05:09:59;;;;;;;0.88;0.40;;;6.10;99.90;;;;;;5140302;27;20055;-75
2022/01/08 05:12:25;;;;;;;3.75;0.70;;;6.10;99.90;;;;;;5140077;27;20107;-76
2022/01/08 05:14:51;;;;;;;1.80;0.77;;;6.10;99.90;;;;;;5139340;27;20042;-75
2022/01/08 05:17:17;;;;;;;1.95;0.55;;;6.10;99.90;;;;;;5139680;27;20047;-75
2022/01/08 05:22:17;;;;;;;1.58;0.65;;;6.20;99.90;;;;;;5139570;27;20027;-75
2022/01/08 05:24:43;;;;;;;2.15;0.47;;;6.20;1.00;;;;;;5139225;27;20051;-75
2022/01/08 05:27:12;;;;;;;1.13;0.35;;;6.20;1.00;;;;;;5139492;27;20042;-75
2022/01/08 05:29:38;;;;;;;2.17;0.50;;;6.30;99.90;;;;;;5139795;27;20035;-76
2022/01/08 05:32:04;;;;;;;0.57;0.30;;;6.30;99.90;;;;;;5139612;27;20065;-75
2022/01/08 05:34:30;;;;;;;0.50;0.20;;;6.20;99.90;;;;;;5139114;27;20035;-75
2022/01/08 05:36:56;;;;;;;0.70;0.20;;;6.20;99.90;;;;;;5139305;27;20437;-76
2022/01/08 05:39:22;;;;;;;0.60;0.10;;;6.20;99.90;;;;;;5139924;27;20166;-76
2022/01/08 05:41:47;;;;;;;0.10;0.10;;;6.20;99.90;;;;;;5139038;27;20035;-75
2022/01/08 05:44:13;;;;;;;0.10;0.10;;;6.20;99.90;;;;;;5138905;27;20038;-76
2022/01/08 05:46:44;;;;;;;2.03;0.40;;;6.20;99.90;;;;;;5139444;27;20545;-76
2022/01/08 05:49:09;;;;;;;1.80;0.60;;;6.20;99.90;;;;;;5138336;27;20023;-75
2022/01/08 05:51:35;;;;;;;0.45;0.38;;;6.20;99.90;;;;;;5138750;27;20035;-76
2022/01/08 05:54:01;;;;;;;0.32;0.20;;;6.20;99.90;;;;;;5138716;27;20034;-75
2022/01/08 05:56:27;;;;;;;0.40;0.13;;;6.30;99.90;;;;;;5138853;27;20179;-75
2022/01/08 05:58:53;;;;;;;0.20;0.10;;;6.20;99.90;;;;;;5139245;27;20038;-75
2022/01/08 06:01:18;;;;;;;0.13;0.10;;;6.20;99.90;;;;;;5138829;27;20088;-76
2022/01/08 06:03:44;;;;;;;0.70;0.22;;;6.20;99.90;;;;;;5138643;27;20023;-75
2022/01/08 06:06:10;;;;;;;0.20;0.20;;;6.30;99.90;;;;;;5138474;27;20046;-76
2022/01/08 06:08:36;;;;;;;1.55;0.25;;;6.20;99.90;;;;;;5139299;27;20106;-75
2022/01/08 06:11:01;;;;;;;1.55;0.20;;;6.10;99.90;;;;;;5138540;27;20043;-76
2022/01/08 06:13:27;;;;;;;0.40;0.40;;;6.10;99.90;;;;;;5138644;27;20038;-76
2022/01/08 06:15:53;;;;;;;0.50;0.40;;;6.10;99.90;;;;;;5138646;27;20043;-75
2022/01/08 06:18:19;;;;;;;0.77;0.77;;;6.10;99.90;;;;;;5137890;27;20039;-76
2022/01/08 06:20:45;;;;;;;0.47;0.47;;;6.10;99.90;;;;;;5138812;27;20121;-75
2022/01/08 06:23:10;;;;;;;0.30;0.20;;;6.20;99.90;;;;;;5138165;27;20031;-75
2022/01/08 06:25:36;;;;;;;0.73;0.40;;;6.20;39.80;;;;;;5138946;27;20103;-75
2022/01/08 06:28:02;;;;;;;0.30;0.28;;;6.20;99.90;;;;;;5138380;27;20049;-75
2022/01/08 06:30:28;;;;;;;0.45;0.30;;;6.20;7.60;;;;;;5138392;27;20042;-76
2022/01/08 06:32:54;;;;;;;0.40;0.30;;;6.20;99.90;;;;;;5137799;27;20027;-76
2022/01/08 06:35:19;;;;;;;0.20;0.20;;;6.30;1.00;;;;;;5138700;27;20034;-75
2022/01/08 06:37:45;;;;;;;0.90;0.60;;;6.30;99.90;;;;;;5137863;27;20031;-75
2022/01/08 06:40:11;;;;;;;0.60;0.60;;;6.30;94.00;;;;;;5138703;27;20079;-76
2022/01/08 06:42:37;;;;;;;0.40;0.40;;;6.40;1.00;;;;;;5137775;27;20038;-76
2022/01/08 06:45:03;;;;;;;1.05;0.13;;;6.40;99.90;;;;;;5138174;27;20073;-76
2022/01/08 06:47:29;;;;;;;0.45;0.38;;;6.50;99.90;;;;;;5138018;27;20027;-76
2022/01/08 06:49:55;;;;;;;0.40;0.30;;;6.40;99.90;;;;;;5137875;27;20087;-75
2022/01/08 06:52:21;;;;;;;0.40;0.30;;;6.50;99.90;;;;;;5137579;27;20022;-75
2022/01/08 06:54:46;;;;;;;0.20;0.10;;;6.40;99.90;;;;;;5137907;27;20062;-76
2022/01/08 06:57:12;;;;;;;0.30;0.30;;;6.40;99.90;;;;;;5137526;27;20418;-75
2022/01/08 06:59:38;;;;;;;1.23;0.20;;;6.40;99.90;;;;;;5138360;27;20031;-75
2022/01/08 07:02:04;;;;;;;0.77;0.10;;;6.40;99.90;;;;;;5136907;27;20041;-76
2022/01/08 07:04:29;;;;;;;0.50;0.20;;;6.40;99.90;;;;;;5120860;27;20042;-76
2022/01/08 07:06:55;;;;;;;0.77;0.30;;;6.40;99.90;;;;;;5121799;27;20035;-76
2022/01/08 07:09:21;;;;;;;0.40;0.20;;;6.40;99.90;;;;;;5130985;27;20032;-75
2022/01/08 07:11:47;;;;;;;0.77;0.40;;;6.40;99.90;;;;;;5117146;28;20074;-75
2022/01/08 07:14:13;;;;;;;0.70;0.22;;;6.50;99.90;;;;;;5123796;27;20031;-77
2022/01/08 07:16:39;;;;;;;0.40;0.40;;;6.50;99.90;;;;;;5119666;27;20046;-76
2022/01/08 07:19:04;;;;;;;0.80;0.43;;;6.50;99.90;;;;;;5130897;27;20027;-76
2022/01/08 07:21:30;;;;;;;2.33;0.70;;;6.40;99.90;;;;;;5130503;27;20035;-75
2022/01/08 07:23:56;;;;;;;1.52;0.70;;;6.40;99.90;;;;;;5128172;27;20491;-75
2022/01/08 07:26:22;;;;;;;0.95;0.50;;;6.40;99.90;;;;;;5136547;27;20528;-75
2022/01/08 07:28:48;;;;;;;1.77;0.60;;;6.40;99.90;;;;;;5120314;27;20051;-76
2022/01/08 07:31:14;;;;;;;0.45;0.30;;;6.40;99.90;;;;;;5127738;27;20070;-75
2022/01/08 07:33:40;;;;;;;0.75;0.30;;;6.50;99.90;;;;;;5121796;27;20423;-75
2022/01/08 07:36:05;;;;;;;0.57;0.30;;;6.50;1.00;;;;;;5117532;27;20047;-75
2022/01/08 07:38:31;;;;;;;0.10;0.10;;;6.60;1.00;;;;;;5119938;27;20036;-74
2022/01/08 07:40:57;;;;;;;1.85;0.20;;;6.60;1.00;;;;;;5128616;27;20035;-75
2022/01/08 07:43:23;;;;;;;1.38;0.20;;;6.60;1.00;;;;;;5125147;27;20032;-75
2022/01/08 07:45:49;;;;;;;0.52;0.20;;;6.60;1.00;;;;;;5127368;27;20112;-75
2022/01/08 07:48:15;;;;;;;0.30;0.30;;;6.60;1.00;;;;;;5120772;27;20038;-75
2022/01/08 07:50:40;;;;;;;0.50;0.30;;;6.60;1.00;;;;;;5134333;27;20385;-75
2022/01/08 07:53:06;;;;;;;0.55;0.45;;;6.60;1.00;;;;;;5129160;27;20030;-76
2022/01/08 07:55:32;;;;;;;0.63;0.43;;;6.60;5.30;;;;;;5114129;28;20035;-76
2022/01/08 07:57:58;;;;;;;1.05;0.70;;;6.60;1.60;;;;;;5116622;27;20046;-77
2022/01/08 08:00:24;;;;;;;2.78;0.80;;;6.50;2.60;;;;;;5135054;27;20039;-76
2022/01/08 08:02:50;;;;;;;1.63;1.00;;;6.40;1.00;;;;;;5134827;27;20126;-75
2022/01/08 08:05:16;;;;;;;2.63;1.20;;;6.50;6.70;;;;;;5124559;27;20035;-77
2022/01/08 08:07:42;;;;;;;1.58;1.15;;;6.40;1.00;;;;;;5115713;28;20031;-77
2022/01/08 08:10:11;;;;;;;2.65;1.02;;;6.40;33.10;;;;;;5121668;27;20031;-77
2022/01/08 08:12:38;;;;;;;1.65;1.15;;;6.40;1.00;;;;;;5115227;27;20081;-76
2022/01/08 08:15:06;;;;;;;1.05;0.68;;;6.50;1.00;;;;;;5123412;27;20073;-76
2022/01/08 08:17:34;;;;;;;2.08;0.50;;;6.60;1.00;;;;;;5119411;27;20059;-75
2022/01/08 08:20:01;;;;;;;1.65;0.40;;;6.70;99.90;;;;;;5113759;27;20036;-76
2022/01/08 08:22:27;;;;;;;2.97;0.70;;;6.80;99.90;;;;;;5113324;28;20374;-75
2022/01/08 08:24:53;;;;;;;7.07;5.40;;;6.80;99.90;;;;;;5121044;27;20122;-76
2022/01/08 08:27:18;;;;;;;1.52;1.27;;;6.80;99.90;;;;;;5133080;27;20038;-76
2022/01/08 08:29:44;;;;;;;0.88;0.30;;;6.80;99.90;;;;;;5118693;27;20039;-76
2022/01/08 08:32:10;;;;;;;5.95;4.85;;;6.80;99.90;;;;;;5132487;27;20514;-76
2022/01/08 08:34:36;;;;;;;3.33;2.10;;;6.90;99.90;;;;;;5121257;27;20635;-75
2022/01/08 08:37:02;;;;;;;1.70;0.93;;;7.00;99.90;;;;;;5115144;28;20482;-76
2022/01/08 08:39:28;;;;;;;6.68;2.60;;;7.10;68.70;;;;;;5121641;27;20039;-76
2022/01/08 08:41:54;;;;;;;15.98;8.57;;;7.00;99.90;;;;;;5125125;27;20038;-75
2022/01/08 08:44:20;;;;;;;9.60;6.78;;;7.00;98.20;;;;;;5124519;27;20118;-75
2022/01/08 08:46:46;;;;;;;7.82;2.55;;;7.10;82.60;;;;;;5125826;27;20066;-75
2022/01/08 08:49:12;;;;;;;4.97;1.73;;;7.10;99.90;;;;;;5122888;27;20077;-77
2022/01/08 08:51:38;;;;;;;9.23;5.25;;;7.10;66.60;;;;;;5122279;27;20027;-75
2022/01/08 08:54:04;;;;;;;6.57;2.30;;;7.10;98.00;;;;;;5128085;27;20035;-74
2022/01/08 08:56:29;;;;;;;21.75;12.35;;;7.10;95.20;;;;;;5116206;27;20407;-74
2022/01/08 08:58:55;;;;;;;12.95;7.55;;;7.20;99.90;;;;;;5118667;28;20039;-75
2022/01/08 09:01:22;;;;;;;5.22;2.25;;;7.20;99.90;;;;;;5114539;28;20436;-74
2022/01/08 09:03:48;;;;;;;7.57;2.28;;;7.20;92.50;;;;;;5120828;28;20114;-74
2022/01/08 09:06:14;;;;;;;14.48;7.82;;;7.20;99.90;;;;;;5134980;28;20118;-75
2022/01/08 09:08:39;;;;;;;9.57;6.18;;;7.20;97.00;;;;;;5129529;28;20035;-76
2022/01/08 09:11:05;;;;;;;13.30;3.08;;;7.20;99.90;;;;;;5129502;28;20046;-75
2022/01/08 09:13:31;;;;;;;13.82;4.47;;;7.20;99.90;;;;;;5117265;28;20040;-74
2022/01/08 09:15:57;;;;;;;9.07;3.20;;;7.20;99.90;;;;;;5126830;28;20031;-74
2022/01/08 09:18:23;;;;;;;9.38;2.60;;;7.30;91.40;;;;;;5118767;28;20035;-75
2022/01/08 09:20:49;;;;;;;9.50;2.25;;;7.30;74.40;;;;;;5121797;28;20054;-75
2022/01/08 09:23:15;;;;;;;12.68;2.83;;;7.30;93.80;;;;;;5120438;28;20035;-75
2022/01/08 09:25:41;;;;;;;9.38;2.58;;;7.40;94.40;;;;;;5135092;27;20035;-75
2022/01/08 09:28:07;;;;;;;8.15;4.03;;;7.40;82.80;;;;;;5128077;27;20464;-75
2022/01/08 09:30:33;;;;;;;7.95;3.65;;;7.50;92.10;;;;;;5122521;28;20380;-76
2022/01/08 09:32:59;;;;;;;8.18;2.60;;;7.50;88.30;;;;;;5119467;28;20037;-75
2022/01/08 09:35:28;;;;;;;23.88;9.65;;;7.50;77.40;;;;;;5122953;28;20047;-74
2022/01/08 09:37:54;;;;;;;13.25;4.95;;;7.50;99.50;;;;;;5116014;28;20122;-75
2022/01/08 09:40:23;;;;;;;8.80;3.20;;;7.50;83.50;;;;;;5121602;28;20120;-75
2022/01/08 09:42:50;;;;;;;10.15;5.18;;;7.60;99.90;;;;;;5118512;28;20036;-75
2022/01/08 09:45:17;;;;;;;18.95;14.95;;;7.50;99.90;;;;;;5114638;28;20103;-74
2022/01/08 09:47:43;;;;;;;5.90;3.80;;;7.50;99.90;;;;;;5116222;28;20040;-75
2022/01/08 09:50:09;;;;;;;12.25;6.55;;;7.60;99.90;;;;;;5133450;28;20023;-74
2022/01/08 09:52:36;;;;;;;9.70;2.63;;;7.60;99.90;;;;;;5134173;27;20049;-74
2022/01/08 09:55:03;;;;;;;6.30;2.50;;;7.60;99.90;;;;;;5119973;27;20039;-74
2022/01/08 09:57:29;;;;;;;5.78;3.08;;;7.60;39.50;;;;;;5118005;27;20032;-77
2022/01/08 09:59:55;;;;;;;2.85;0.90;;;7.60;94.50;;;;;;5123284;27;20027;-76
2022/01/08 10:02:22;;;;;;;3.47;1.67;;;7.70;34.70;;;;;;5118604;27;20034;-78
2022/01/08 10:04:49;;;;;;;2.90;1.77;;;7.80;56.80;;;;;;5124578;27;20043;-78
2022/01/08 10:07:15;;;;;;;1.60;0.90;;;7.80;48.20;;;;;;5136228;27;20038;-77
2022/01/08 10:10:11;;;;;;;4.60;2.65;;;7.70;49.30;;;;;;5135033;27;20031;-77
2022/01/08 10:12:59;;;;;;;5.72;1.88;;;7.80;50.20;;;;;;5122388;27;20040;-77
2022/01/08 10:18:33;;;;;;;7.50;2.50;;;7.80;70.80;;;;;;5117080;27;20030;-77
2022/01/08 10:21:02;;;;;;;3.40;2.25;;;7.80;75.10;;;;;;5135558;27;20034;-78
2022/01/08 10:23:32;;;;;;;7.18;2.42;;;7.80;93.00;;;;;;5136370;27;20035;-77
2022/01/08 10:26:07;;;;;;;2.67;1.23;;;7.80;99.90;;;;;;5131519;27;20047;-77
2022/01/08 10:28:50;;;;;;;9.00;1.60;;;7.80;99.90;;;;;;5117466;28;20485;-76
2022/01/08 10:31:27;;;;;;;2.38;1.10;;;7.80;99.90;;;;;;5125855;27;20041;-78
2022/01/08 10:34:08;;;;;;;4.47;2.00;;;7.70;99.90;;;;;;5126385;27;20031;-76
2022/01/08 10:36:35;;;;;;;;;;;7.70;99.90;;;;;;5118711;27;20035;-76
2022/01/08 10:39:11;;;;;;;5.32;2.50;;;7.70;99.90;;;;;;5117320;28;19907;-77
2022/01/08 10:41:46;;;;;;;5.80;2.92;;;7.70;99.90;;;;;;5117650;28;20039;-77
2022/01/08 10:44:20;;;;;;;7.32;1.88;;;7.60;99.90;;;;;;5117599;27;20047;-76
2022/01/08 10:47:05;;;;;;;2.58;1.30;;;7.30;99.90;;;;;;5128608;27;20074;-76
2022/01/08 10:49:37;;;;;;;6.07;2.92;;;7.30;99.90;;;;;;5116958;28;20027;-77
2022/01/08 10:52:06;;;;;;;4.70;2.20;;;7.30;99.90;;;;;;5123203;27;20034;-75
2022/01/08 10:54:35;;;;;;;2.38;1.10;;;7.30;99.90;;;;;;5137113;27;20027;-77
2022/01/08 10:57:03;;;;;;;4.80;2.97;;;7.10;99.90;;;;;;5135740;27;20092;-77
2022/01/08 10:59:31;;;;;;;4.50;2.13;;;7.10;99.90;;;;;;5136299;27;20035;-77
2022/01/08 11:02:03;;;;;;;7.90;3.38;;;7.20;99.90;;;;;;5125210;27;20033;-76
2022/01/08 11:04:36;;;;;;;3.58;1.23;;;7.30;99.90;;;;;;5132249;27;20023;-76
2022/01/08 11:07:31;;;;;;;5.57;1.30;;;7.20;94.60;;;;;;5137109;27;20072;-76
2022/01/08 11:10:04;;;;;;;9.52;4.70;;;7.20;96.80;;;;;;5104926;27;20042;-76
2022/01/08 11:12:36;;;;;;;4.20;1.70;;;7.30;99.90;;;;;;5118016;27;20067;-78
2022/01/08 11:17:43;;;;;;;7.40;1.50;;;7.10;99.90;;;;;;5118373;27;20027;-76
2022/01/08 11:20:13;;;;;;;8.07;2.40;;;7.10;81.00;;;;;;5126726;27;20034;-75
2022/01/08 11:22:41;;;;;;;8.15;2.53;;;7.20;99.90;;;;;;5124037;27;20036;-76
2022/01/08 11:25:17;;;;;;;10.90;2.90;;;7.30;99.90;;;;;;5115880;27;20044;-77
2022/01/08 11:28:12;;;;;;;11.50;3.20;;;7.20;85.80;;;;;;5119474;27;20038;-75
2022/01/08 11:30:47;;;;;;;14.23;2.63;;;7.30;69.20;;;;;;5119056;27;20049;-77
2022/01/08 11:33:22;;;;;;;11.63;2.85;;;7.50;25.00;;;;;;5137026;27;20035;-77
2022/01/08 11:35:50;;;;;;;10.90;2.08;;;7.80;21.90;;;;;;5135211;27;20039;-77
2022/01/08 11:38:19;;;;;;;6.88;2.00;;;7.80;27.80;;;;;;5127532;27;20027;-76
2022/01/08 11:40:47;;;;;;;7.43;1.80;;;7.80;29.10;;;;;;5120352;27;20027;-76
2022/01/08 11:43:16;;;;;;;11.18;5.22;;;7.80;50.10;;;;;;5121806;27;20067;-77
2022/01/08 11:46:06;;;;;;;10.18;2.00;;;7.70;32.40;;;;;;5132339;27;20042;-78
2022/01/08 11:48:40;;;;;;;6.40;1.65;;;7.70;37.70;;;;;;5123902;27;20034;-78
2022/01/08 11:51:07;;;;;;;5.22;2.08;;;7.80;51.70;;;;;;5135054;27;20043;-76
2022/01/08 11:53:45;;;;;;;18.35;7.78;;;7.90;43.40;;;;;;5123763;27;20126;-76
2022/01/08 11:56:29;;;;;;;8.13;2.70;;;8.10;26.30;;;;;;5119525;27;20520;-76
2022/01/08 11:59:29;;;;;;;8.98;3.50;;;8.20;21.00;;;;;;5124864;27;20059;-76
2022/01/08 12:02:09;;;;;;;11.50;3.13;;;8.40;24.70;;;;;;5121090;27;20031;-78
2022/01/08 12:04:36;;;;;;;15.93;4.93;;;8.60;14.40;;;;;;5126293;27;20028;-77
2022/01/08 12:07:37;;;;;;;13.43;4.25;;;8.50;8.30;;;;;;5115506;27;20038;-77
2022/01/08 12:10:12;;;;;;;10.00;3.65;;;8.40;17.30;;;;;;5080933;27;20027;-77
2022/01/08 12:12:55;;;;;;;9.13;2.08;;;8.30;17.80;;;;;;5084785;28;20054;-77
2022/01/08 12:15:42;;;;;;;13.13;5.28;;;8.30;13.10;;;;;;5087633;28;20113;-77
2022/01/08 12:18:17;;;;;;;14.85;7.18;;;8.30;5.70;;;;;;5087923;28;20034;-77
2022/01/08 12:20:54;;;;;;;16.52;5.32;;;8.30;12.60;;;;;;5075581;28;20032;-77
2022/01/08 12:23:30;;;;;;;14.77;4.18;;;8.30;14.50;;;;;;5077235;28;20035;-78
2022/01/08 12:26:00;;;;;;;24.40;9.48;;;8.20;10.40;;;;;;5075023;28;20032;-77
2022/01/08 12:28:47;;;;;;;4.30;1.65;;;8.20;15.50;;;;;;5078904;28;20044;-78
2022/01/08 12:31:41;;;;;;;5.32;1.50;;;8.40;11.00;;;;;;5079348;28;20116;-77
2022/01/08 12:34:38;;;;;;;8.23;2.30;;;8.60;17.80;;;;;;5073553;28;20088;-77
2022/01/08 12:37:13;;;;;;;7.70;2.60;;;8.80;18.60;;;;;;5074049;28;20068;-75
2022/01/08 12:40:10;;;;;;;7.05;1.50;;;8.70;19.50;;;;;;5075654;28;20082;-77
2022/01/08 12:42:41;;;;;;;9.48;2.35;;;8.70;12.30;;;;;;5067052;28;20072;-77
2022/01/08 12:45:29;;;;;;;3.58;1.25;;;8.60;18.10;;;;;;5079949;28;20035;-78
2022/01/08 12:48:08;;;;;;;4.78;1.67;;;8.80;19.50;;;;;;5079465;28;20101;-77
2022/01/08 12:50:42;;;;;;;2.97;1.10;;;9.10;20.90;;;;;;5093695;28;20047;-77
2022/01/08 12:53:08;;;;;;;8.15;1.67;;;9.30;10.40;;;;;;5082752;28;20242;-77
2022/01/08 12:55:37;;;;;;;10.82;5.05;;;9.30;1.00;;;;;;5079089;28;20054;-77
2022/01/08 12:58:17;;;;;;;7.20;1.60;;;9.20;1.00;;;;;;5085873;28;20123;-77
2022/01/08 13:01:07;;;;;;;9.13;2.30;;;9.00;1.00;;;;;;5073324;28;20037;-78
2022/01/08 13:03:56;;;;;;;9.55;2.97;;;8.90;1.00;;;;;;5073891;28;20097;-77
2022/01/08 13:06:28;;;;;;;9.18;2.40;;;8.90;1.00;;;;;;5090145;28;20039;-77
2022/01/08 13:08:56;;;;;;;6.15;2.50;;;8.80;1.00;;;;;;5092306;28;20046;-77
2022/01/08 13:11:34;;;;;;;7.78;2.58;;;8.70;1.00;;;;;;5108873;27;20052;-78
2022/01/08 13:14:06;;;;;;;9.38;2.92;;;8.70;1.00;;;;;;5122974;28;20038;-78
2022/01/08 13:16:41;;;;;;;9.65;3.00;;;8.60;2.50;;;;;;5116768;28;20035;-78
2022/01/08 13:19:12;;;;;;;7.13;1.85;;;8.70;2.60;;;;;;5118811;28;20050;-79
2022/01/08 13:21:40;;;;;;;;;;;8.70;6.00;;;;;;5118456;28;20035;-79
2022/01/08 13:24:16;;;;;;;2.30;0.82;;;8.60;4.40;;;;;;5128368;28;19903;-78
2022/01/08 13:26:47;;;;;;;3.17;0.88;;;8.50;2.30;;;;;;5118278;28;20032;-78
2022/01/08 13:29:23;;;;;;;2.92;0.80;;;8.50;1.00;;;;;;5121143;27;20031;-78
2022/01/08 13:32:22;;;;;;;1.75;0.73;;;8.60;1.00;;;;;;5138352;27;20061;-75
2022/01/08 13:35:06;;;;;;;3.20;1.23;;;8.70;1.00;;;;;;5122016;27;20035;-79